createdAt,value
2022-08-09T00:02:29.590Z,100706.97
2022-08-09T00:05:00.761Z,100704.25
2022-08-09T00:07:47.076Z,100708.50
2022-08-09T00:10:18.202Z,100709.78
2022-08-09T00:12:53.136Z,100708.53
2022-08-09T00:15:26.761Z,100715.69
2022-08-09T00:18:12.153Z,100713.69
2022-08-09T00:20:42.293Z,100711.34
2022-08-09T00:23:57.564Z,100709.44
2022-08-09T00:26:11.111Z,100714.41
2022-08-09T00:28:40.691Z,100710.34
2022-08-09T00:31:57.565Z,100721.63
2022-08-09T00:33:57.826Z,100708.53
2022-08-09T00:36:29.504Z,100717.34
2022-08-09T00:39:00.646Z,100719.72
2022-08-09T00:44:10.711Z,100710.25
2022-08-09T00:44:25.468Z,100717.22
2022-08-09T00:47:04.828Z,100717.63
2022-08-09T00:49:36.570Z,100722.25
2022-08-09T00:52:15.837Z,100726.25
2022-08-09T00:54:48.959Z,100729.78
2022-08-09T00:57:24.688Z,100721.66
2022-08-09T01:00:03.060Z,100723.00
2022-08-09T01:02:50.715Z,100726.28
2022-08-09T01:05:50.706Z,100719.28
2022-08-09T01:08:26.760Z,100725.00
2022-08-09T01:11:18.764Z,100724.34
2022-08-09T01:13:58.687Z,100717.38
2022-08-09T01:16:31.441Z,100725.34
2022-08-09T01:19:04.689Z,100726.34
2022-08-09T01:21:50.857Z,100732.47
2022-08-09T01:24:33.618Z,100726.34
2022-08-09T01:27:08.064Z,100726.88
2022-08-09T01:29:55.800Z,100726.22
2022-08-09T01:32:32.513Z,100723.44
2022-08-09T01:35:06.884Z,100735.50
2022-08-09T01:38:08.174Z,100728.69
2022-08-09T01:40:37.793Z,100721.78
2022-08-09T01:43:08.600Z,100723.91
2022-08-09T01:45:46.343Z,100723.75
2022-08-09T01:48:17.556Z,100726.91
2022-08-09T01:50:54.948Z,100728.72
2022-08-09T01:53:28.956Z,100716.63
2022-08-09T01:55:58.443Z,100714.47
2022-08-09T01:58:30.067Z,100720.44
2022-08-09T02:01:01.210Z,100718.78
2022-08-09T02:03:32.672Z,100711.63
2022-08-09T02:06:07.101Z,100718.94
2022-08-09T02:08:57.573Z,100719.75
2022-08-09T02:11:42.042Z,100714.59
2022-08-09T02:14:26.391Z,100715.97
2022-08-09T02:17:15.212Z,100728.53
2022-08-09T02:19:45.709Z,100716.94
2022-08-09T02:22:37.965Z,100712.47
2022-08-09T02:25:15.280Z,100717.09
2022-08-09T02:28:00.184Z,100720.44
2022-08-09T02:30:38.607Z,100715.28
2022-08-09T02:33:14.426Z,100711.34
2022-08-09T02:36:02.072Z,100713.00
2022-08-09T02:38:34.881Z,100710.00
2022-08-09T02:41:09.565Z,100709.19
2022-08-09T02:43:53.743Z,100709.22
2022-08-09T02:46:28.439Z,100709.38
2022-08-09T02:49:00.020Z,100710.81
2022-08-09T02:51:37.109Z,100712.03
2022-08-09T02:54:14.158Z,100710.69
2022-08-09T02:56:51.146Z,100711.16
2022-08-09T02:59:26.400Z,100723.25
2022-08-09T03:02:12.334Z,100726.25
2022-08-09T03:04:50.722Z,100718.25
2022-08-09T03:07:20.139Z,100703.19
2022-08-09T03:09:54.516Z,100719.06
2022-08-09T03:12:27.293Z,100717.25
2022-08-09T03:14:56.553Z,100725.88
2022-08-09T03:17:27.543Z,100721.41
2022-08-09T03:20:05.208Z,100718.75
2022-08-09T03:22:41.799Z,100724.53
2022-08-09T03:25:26.022Z,100716.44
2022-08-09T03:27:56.498Z,100716.28
2022-08-09T03:30:29.482Z,100721.09
2022-08-09T03:33:13.059Z,100726.69
2022-08-09T03:36:12.706Z,100732.31
2022-08-09T03:38:34.355Z,100724.22
2022-08-09T03:41:02.823Z,100724.22
2022-08-09T03:43:33.179Z,100724.56
2022-08-09T03:46:13.566Z,100717.47
2022-08-09T03:48:54.199Z,100684.84
2022-08-09T03:51:55.033Z,100715.59
2022-08-09T03:54:14.238Z,100714.63
2022-08-09T03:56:42.905Z,100713.34
2022-08-09T03:59:20.821Z,100708.41
2022-08-09T04:01:50.688Z,100703.59
2022-08-09T04:04:21.059Z,100707.41
2022-08-09T04:06:52.858Z,100695.50
2022-08-09T04:09:47.883Z,100699.78
2022-08-09T04:12:40.613Z,100703.09
2022-08-09T04:15:29.635Z,100716.31
2022-08-09T04:18:01.923Z,100721.13
2022-08-09T04:20:31.392Z,100711.03
2022-08-09T04:23:01.870Z,100728.56
2022-08-09T04:25:30.480Z,100721.09
2022-08-09T04:28:02.523Z,100721.91
2022-08-09T04:30:32.202Z,100722.69
2022-08-09T04:33:01.910Z,100727.78
2022-08-09T04:35:32.637Z,100719.88
2022-08-09T04:38:03.609Z,100728.41
2022-08-09T04:40:46.122Z,100734.47
2022-08-09T04:43:14.282Z,100740.56
2022-08-09T04:45:53.985Z,100740.59
2022-08-09T04:48:23.789Z,100739.94
2022-08-09T04:51:02.707Z,100739.38
2022-08-09T04:53:31.311Z,100732.94
2022-08-09T04:56:00.164Z,100733.16
2022-08-09T04:58:29.051Z,100739.06
2022-08-09T05:00:58.297Z,100731.75
2022-08-09T05:03:41.034Z,100738.09
2022-08-09T05:06:26.740Z,100737.09
2022-08-09T05:09:00.346Z,100734.97
2022-08-09T05:11:30.617Z,100731.13
2022-08-09T05:14:00.605Z,100733.16
2022-08-09T05:16:31.955Z,100731.09
2022-08-09T05:19:00.825Z,100740.69
2022-08-09T05:21:36.616Z,100732.09
2022-08-09T05:24:15.660Z,100739.19
2022-08-09T05:26:45.992Z,100735.03
2022-08-09T05:29:21.864Z,100738.63
2022-08-09T05:31:56.879Z,100736.47
2022-08-09T05:34:30.201Z,100738.94
2022-08-09T05:37:06.476Z,100737.75
2022-08-09T05:39:43.420Z,100740.66
2022-08-09T05:42:17.527Z,100742.34
2022-08-09T05:44:51.649Z,100755.41
2022-08-09T05:47:21.729Z,100751.25
2022-08-09T05:50:26.928Z,100746.56
2022-08-09T05:52:41.918Z,100742.97
2022-08-09T05:55:20.439Z,100751.25
2022-08-09T05:57:55.877Z,100747.75
2022-08-09T06:00:25.879Z,100754.94
2022-08-09T06:02:56.641Z,100752.66
2022-08-09T06:05:30.777Z,100748.00
2022-08-09T06:08:18.929Z,100751.56
2022-08-09T06:10:48.231Z,100752.41
2022-08-09T06:13:20.313Z,100762.84
2022-08-09T06:15:51.695Z,100761.50
2022-08-09T06:18:25.285Z,100755.16
2022-08-09T06:20:57.078Z,100764.22
2022-08-09T06:23:57.843Z,100755.91
2022-08-09T06:26:20.337Z,100752.84
2022-08-09T06:28:50.221Z,100767.88
2022-08-09T06:31:31.403Z,100759.78
2022-08-09T06:34:08.178Z,100760.78
2022-08-09T06:36:37.697Z,100760.00
2022-08-09T06:39:13.595Z,100768.59
2022-08-09T06:42:08.821Z,100771.75
2022-08-09T06:44:30.892Z,100770.19
2022-08-09T06:46:58.906Z,100764.59
2022-08-09T06:49:44.962Z,100766.06
2022-08-09T06:52:15.942Z,100770.00
2022-08-09T06:54:45.597Z,100765.84
2022-08-09T06:57:14.204Z,100772.22
2022-08-09T07:00:54.116Z,100775.53
2022-08-09T07:02:32.185Z,100773.03
2022-08-09T07:05:00.942Z,100777.84
2022-08-09T07:07:59.773Z,100765.88
2022-08-09T07:10:22.504Z,100774.13
2022-08-09T07:12:58.259Z,100770.00
2022-08-09T07:16:35.356Z,100766.91
2022-08-09T07:18:15.073Z,100765.69
2022-08-09T07:20:44.397Z,100765.38
2022-08-09T07:23:19.153Z,100756.22
2022-08-09T07:25:52.166Z,100771.13
2022-08-09T07:28:30.204Z,100764.91
2022-08-09T07:31:04.794Z,100764.63
2022-08-09T07:33:52.920Z,100765.53
2022-08-09T07:36:20.905Z,100767.56
2022-08-09T07:39:00.403Z,100767.69
2022-08-09T07:41:32.938Z,100754.38
2022-08-09T07:44:06.757Z,100753.53
2022-08-09T07:46:34.998Z,100755.00
2022-08-09T07:49:05.682Z,100758.59
2022-08-09T07:52:04.683Z,100751.06
2022-08-09T07:54:28.098Z,100763.00
2022-08-09T07:56:59.582Z,100756.25
2022-08-09T07:59:34.161Z,100751.34
2022-08-09T08:02:19.751Z,100756.84
2022-08-09T08:04:49.234Z,100755.03
2022-08-09T08:08:42.535Z,100748.16
2022-08-09T08:10:11.336Z,100750.88
2022-08-09T08:12:45.553Z,100746.56
2022-08-09T08:15:17.553Z,100753.56
2022-08-09T08:17:52.902Z,100751.56
2022-08-09T08:20:29.284Z,100740.69
2022-08-09T08:23:03.376Z,100732.13
2022-08-09T08:25:44.586Z,100740.19
2022-08-09T08:28:18.323Z,100736.97
2022-08-09T08:30:54.982Z,100736.44
2022-08-09T08:33:24.758Z,100721.09
2022-08-09T08:36:00.421Z,100739.47
2022-08-09T08:38:31.776Z,100738.66
2022-08-09T08:41:01.837Z,100734.16
2022-08-09T08:43:36.305Z,100733.66
2022-08-09T08:46:31.667Z,100727.06
2022-08-09T08:48:56.650Z,100731.06
2022-08-09T08:51:27.332Z,100726.88
2022-08-09T08:54:11.820Z,100728.69
2022-08-09T08:56:48.715Z,100734.75
2022-08-09T08:59:19.713Z,100730.50
2022-08-09T09:01:52.789Z,100716.69
2022-08-09T09:04:27.434Z,100722.63
2022-08-09T09:06:58.078Z,100724.59
2022-08-09T09:09:58.037Z,100721.78
2022-08-09T09:12:17.797Z,100722.66
2022-08-09T09:14:49.169Z,100713.78
2022-08-09T09:17:18.189Z,100707.94
2022-08-09T09:19:48.996Z,100709.47
2022-08-09T09:22:26.605Z,100707.38
2022-08-09T09:26:00.382Z,100706.50
2022-08-09T09:28:05.531Z,100703.47
2022-08-09T09:30:52.569Z,100697.88
2022-08-09T09:33:20.614Z,100685.81
2022-08-09T09:36:00.804Z,100685.94
2022-08-09T09:38:42.719Z,100693.50
2022-08-09T09:41:11.501Z,100686.38
2022-08-09T09:44:11.113Z,100678.41
2022-08-09T09:46:51.729Z,100681.34
2022-08-09T09:49:32.091Z,100686.38
2022-08-09T09:52:33.617Z,100676.00
2022-08-09T09:55:16.398Z,100678.22
2022-08-09T09:58:19.222Z,100679.63
2022-08-09T10:00:53.913Z,100675.16
2022-08-09T10:03:43.890Z,100656.88
2022-08-09T10:06:13.291Z,100664.75
2022-08-09T10:08:42.486Z,100663.41
2022-08-09T10:12:00.527Z,100652.50
2022-08-09T10:14:30.491Z,100654.53
2022-08-09T10:17:24.113Z,100653.72
2022-08-09T10:19:53.002Z,100657.91
2022-08-09T10:22:33.356Z,100662.00
2022-08-09T10:25:12.071Z,100649.81
2022-08-09T10:27:55.879Z,100642.94
2022-08-09T10:34:07.683Z,100641.78
2022-08-09T10:36:03.144Z,100632.03
2022-08-09T10:38:54.284Z,100637.66
2022-08-09T10:41:21.515Z,100640.63
2022-08-09T10:44:00.085Z,100626.50
2022-08-09T10:46:57.350Z,100628.00
2022-08-09T10:49:50.193Z,100619.44
2022-08-09T10:52:42.981Z,100630.59
2022-08-09T10:55:23.567Z,100623.03
2022-08-09T10:57:55.341Z,100625.63
2022-08-09T11:01:10.639Z,100611.31
2022-08-09T11:03:49.609Z,100608.09
2022-08-09T11:06:26.234Z,100604.75
2022-08-09T11:09:15.384Z,100603.09
2022-08-09T11:12:12.558Z,100608.34
2022-08-09T11:14:44.659Z,100595.16
2022-08-09T11:17:53.536Z,100606.28
2022-08-09T11:20:43.208Z,100594.41
2022-08-09T11:23:12.165Z,100591.94
2022-08-09T11:25:49.969Z,100588.13
2022-08-09T11:28:56.087Z,100583.88
2022-08-09T11:31:49.564Z,100582.34
2022-08-09T11:34:34.064Z,100570.44
2022-08-09T11:37:07.176Z,100572.19
2022-08-09T11:40:01.485Z,100581.38
2022-08-09T11:42:46.982Z,100572.78
2022-08-09T11:45:26.378Z,100571.13
2022-08-09T11:48:26.012Z,100572.16
2022-08-09T11:52:49.207Z,100564.06
2022-08-09T11:54:28.173Z,100540.28
2022-08-09T11:57:47.972Z,100548.22
2022-08-09T12:00:24.747Z,100546.38
2022-08-09T12:02:56.610Z,100546.84
2022-08-09T12:05:37.600Z,100542.59
2022-08-09T12:08:12.412Z,100539.28
2022-08-09T12:10:49.825Z,100546.28
2022-08-09T12:14:07.823Z,100531.56
2022-08-09T12:16:37.531Z,100524.41
2022-08-09T12:19:08.626Z,100523.50
2022-08-09T12:21:39.306Z,100521.34
2022-08-09T12:24:22.469Z,100514.06
2022-08-09T12:29:14.325Z,100513.19
2022-08-09T12:30:04.522Z,100527.56
2022-08-09T12:32:45.418Z,100514.97
2022-08-09T12:35:19.123Z,100512.94
2022-08-09T12:37:51.586Z,100506.94
2022-08-09T12:40:23.053Z,100503.50
2022-08-09T12:42:51.498Z,100503.72
2022-08-09T12:45:34.955Z,100503.00
2022-08-09T12:48:20.573Z,100499.34
2022-08-09T12:50:59.357Z,100494.66
2022-08-09T12:53:37.619Z,100503.91
2022-08-09T12:56:40.010Z,100489.19
2022-08-09T12:59:08.197Z,100486.88
2022-08-09T13:01:46.967Z,100478.50
2022-08-09T13:04:35.880Z,100488.56
2022-08-09T13:07:13.373Z,100468.41
2022-08-09T13:09:52.835Z,100483.34
2022-08-09T13:12:28.301Z,100477.41
2022-08-09T13:15:07.097Z,100473.09
2022-08-09T13:18:03.880Z,100463.81
2022-08-09T13:20:37.318Z,100468.00
2022-08-09T13:24:17.265Z,100477.22
2022-08-09T13:26:06.584Z,100464.06
2022-08-09T13:28:39.804Z,100467.00
2022-08-09T13:32:13.286Z,100464.44
2022-08-09T13:33:57.673Z,100470.38
2022-08-09T13:36:40.610Z,100482.72
2022-08-09T13:41:19.374Z,100462.13
2022-08-09T13:42:03.628Z,100467.84
2022-08-09T13:44:32.995Z,100466.06
2022-08-09T13:47:27.325Z,100461.44
2022-08-09T13:49:57.589Z,100465.69
2022-08-09T13:52:33.360Z,100478.22
2022-08-09T13:55:04.492Z,100469.88
2022-08-09T13:57:40.207Z,100470.28
2022-08-09T14:00:13.333Z,100454.09
2022-08-09T14:03:04.535Z,100453.63
2022-08-09T14:05:59.972Z,100462.00
2022-08-09T14:08:26.960Z,100446.78
2022-08-09T14:10:56.516Z,100457.91
2022-08-09T14:14:14.681Z,100454.25
2022-08-09T14:16:15.373Z,100443.78
2022-08-09T14:18:50.241Z,100452.28
2022-08-09T14:21:22.373Z,100454.59
2022-08-09T14:23:56.629Z,100450.13
2022-08-09T14:26:31.925Z,100450.94
2022-08-09T14:29:02.936Z,100432.84
2022-08-09T14:31:49.639Z,100441.34
2022-08-09T14:34:31.165Z,100438.59
2022-08-09T14:37:02.857Z,100436.69
2022-08-09T14:39:46.438Z,100442.38
2022-08-09T14:42:30.135Z,100446.09
2022-08-09T14:46:39.921Z,100450.31
2022-08-09T14:47:56.730Z,100471.03
2022-08-09T14:50:27.297Z,100466.84
2022-08-09T14:52:55.371Z,100456.81
2022-08-09T14:55:24.753Z,100468.34
2022-08-09T14:57:52.917Z,100463.22
2022-08-09T15:00:22.313Z,100482.66
2022-08-09T15:02:52.153Z,100476.41
2022-08-09T15:05:20.639Z,100477.97
2022-08-09T15:07:54.795Z,100480.09
2022-08-09T15:10:27.295Z,100487.75
2022-08-09T15:12:56.104Z,100488.53
2022-08-09T15:15:28.258Z,100495.63
2022-08-09T15:17:58.520Z,100504.28
2022-08-09T15:21:55.732Z,100483.72
2022-08-09T15:24:05.782Z,100485.59
2022-08-09T15:26:05.086Z,100496.56
2022-08-09T15:28:37.206Z,100494.59
2022-08-09T15:31:17.854Z,100479.31
2022-08-09T15:34:31.608Z,100472.50
2022-08-09T15:36:34.948Z,100490.50
2022-08-09T15:39:02.880Z,100479.97
2022-08-09T15:41:33.599Z,100472.97
2022-08-09T15:44:02.583Z,100469.84
2022-08-09T15:46:33.410Z,100462.16
2022-08-09T15:49:22.898Z,100457.81
2022-08-09T15:52:02.648Z,100458.88
2022-08-09T15:54:44.231Z,100465.03
2022-08-09T15:57:13.883Z,100458.97
2022-08-09T15:59:44.860Z,100453.16
2022-08-09T16:02:27.173Z,100462.50
2022-08-09T16:04:55.540Z,100461.91
2022-08-09T16:07:25.828Z,100453.38
2022-08-09T16:10:04.552Z,100454.66
2022-08-09T16:12:35.699Z,100448.38
2022-08-09T16:16:09.958Z,100447.28
2022-08-09T16:18:01.345Z,100452.56
2022-08-09T16:20:30.536Z,100462.03
2022-08-09T16:22:58.575Z,100455.94
2022-08-09T16:25:30.688Z,100469.28
2022-08-09T16:28:12.170Z,100470.91
2022-08-09T16:30:44.794Z,100481.78
2022-08-09T16:33:26.663Z,100473.84
2022-08-09T16:35:58.394Z,100472.19
2022-08-09T16:38:30.128Z,100475.66
2022-08-09T16:40:58.353Z,100473.91
2022-08-09T16:43:33.635Z,100479.16
2022-08-09T16:46:08.686Z,100484.03
2022-08-09T16:48:53.961Z,100474.09
2022-08-09T16:51:28.579Z,100485.47
2022-08-09T16:54:25.380Z,100480.91
2022-08-09T16:56:49.514Z,100477.03
2022-08-09T16:59:19.660Z,100485.75
2022-08-09T17:01:52.864Z,100484.91
2022-08-09T17:04:26.093Z,100484.34
2022-08-09T17:08:46.925Z,100488.31
2022-08-09T17:09:47.176Z,100485.41
2022-08-09T17:12:16.229Z,100492.41
2022-08-09T17:14:48.616Z,100488.38
2022-08-09T17:17:26.847Z,100479.28
2022-08-09T17:20:32.713Z,100484.19
2022-08-09T17:22:50.616Z,100474.75
2022-08-09T17:25:23.597Z,100471.13
2022-08-09T17:27:54.526Z,100464.56
2022-08-09T17:30:25.679Z,100469.84
2022-08-09T17:32:57.651Z,100465.41
2022-08-09T17:35:35.565Z,100469.34
2022-08-09T17:38:13.863Z,100472.56
2022-08-09T17:40:57.233Z,100481.25
2022-08-09T17:43:34.479Z,100480.50
2022-08-09T17:46:07.591Z,100493.88
2022-08-09T17:48:39.901Z,100514.50
2022-08-09T17:51:18.451Z,100544.69
2022-08-09T17:53:52.291Z,100547.63
2022-08-09T17:56:27.604Z,100544.19
2022-08-09T17:58:57.969Z,100529.06
2022-08-09T18:02:03.833Z,100554.69
2022-08-09T18:04:15.525Z,100561.91
2022-08-09T18:06:54.026Z,100549.59
2022-08-09T18:09:22.786Z,100547.19
2022-08-09T18:12:15.135Z,100554.84
2022-08-09T18:14:49.619Z,100555.84
2022-08-09T18:18:01.691Z,100552.34
2022-08-09T18:20:59.790Z,100562.03
2022-08-09T18:22:56.538Z,100554.75
2022-08-09T18:25:51.105Z,100547.31
2022-08-09T18:28:21.596Z,100549.31
2022-08-09T18:31:01.890Z,100555.28
2022-08-09T18:33:34.327Z,100563.25
2022-08-09T18:36:02.458Z,100558.16
2022-08-09T18:38:30.705Z,100563.97
2022-08-09T18:40:59.635Z,100568.94
2022-08-09T18:43:28.104Z,100589.78
2022-08-09T18:46:47.907Z,100602.56
2022-08-09T18:48:54.874Z,100600.53
2022-08-09T18:51:38.064Z,100606.75
2022-08-09T18:54:06.614Z,100598.25
2022-08-09T18:56:44.831Z,100606.28
2022-08-09T18:59:21.949Z,100630.81
2022-08-09T19:01:55.092Z,100647.03
2022-08-09T19:04:34.550Z,100637.88
2022-08-09T19:07:05.402Z,100613.00
2022-08-09T19:10:12.778Z,100625.50
2022-08-09T19:12:31.479Z,100620.72
2022-08-09T19:14:59.879Z,100598.16
2022-08-09T19:17:31.248Z,100567.59
2022-08-09T19:20:02.204Z,100556.09
2022-08-09T19:22:30.367Z,100549.63
2022-08-09T19:25:07.578Z,100554.75
2022-08-09T19:27:40.304Z,100545.31
2022-08-09T19:30:23.105Z,100544.69
2022-08-09T19:32:56.484Z,100550.47
2022-08-09T19:35:27.184Z,100555.97
2022-08-09T19:37:57.540Z,100536.84
2022-08-09T19:40:33.215Z,100569.63
2022-08-09T19:43:10.003Z,100572.00
2022-08-09T19:45:44.236Z,100573.38
2022-08-09T19:48:12.312Z,100590.06
2022-08-09T19:50:50.121Z,100601.53
2022-08-09T19:53:22.531Z,100608.84
2022-08-09T19:56:05.555Z,100616.56
2022-08-09T19:58:34.939Z,100622.97
2022-08-09T20:01:04.022Z,100634.13
2022-08-09T20:04:09.550Z,100653.16
2022-08-09T20:06:29.897Z,100655.88
2022-08-09T20:08:59.837Z,100662.16
2022-08-09T20:11:43.275Z,100669.22
2022-08-09T20:14:19.716Z,100672.44
2022-08-09T20:16:53.874Z,100677.09
2022-08-09T20:19:48.704Z,100671.22
2022-08-09T20:22:14.259Z,100683.88
2022-08-09T20:24:43.196Z,100687.06
2022-08-09T20:27:22.279Z,100676.75
2022-08-09T20:29:50.258Z,100671.94
2022-08-09T20:32:33.021Z,100681.09
2022-08-09T20:35:02.277Z,100677.88
2022-08-09T20:37:37.962Z,100687.53
2022-08-09T20:40:26.931Z,100682.06
2022-08-09T20:43:00.384Z,100687.44
2022-08-09T20:45:57.455Z,100696.63
2022-08-09T20:48:31.315Z,100693.31
2022-08-09T20:51:00.127Z,100692.50
2022-08-09T20:53:36.662Z,100694.97
2022-08-09T20:56:08.701Z,100699.59
2022-08-09T20:58:38.190Z,100702.25
2022-08-09T21:01:33.438Z,100704.50
2022-08-09T21:04:07.830Z,100710.78
2022-08-09T21:06:46.082Z,100714.97
2022-08-09T21:09:16.542Z,100695.66
2022-08-09T21:14:38.325Z,100704.50
2022-08-09T21:18:21.742Z,100709.38
2022-08-09T21:20:19.432Z,100700.41
2022-08-09T21:22:46.702Z,100705.59
2022-08-09T21:25:38.174Z,100710.47
2022-08-09T21:28:07.412Z,100707.25
2022-08-09T21:30:40.326Z,100714.78
2022-08-09T21:33:09.163Z,100706.19
2022-08-09T21:35:40.700Z,100716.25
2022-08-09T21:38:30.912Z,100711.94
2022-08-09T21:41:01.043Z,100716.69
2022-08-09T21:43:56.582Z,100712.88
2022-08-09T21:46:17.562Z,100719.53
2022-08-09T21:48:48.382Z,100713.03
2022-08-09T21:51:24.485Z,100710.31
2022-08-09T21:54:04.159Z,100711.13
2022-08-09T21:56:43.427Z,100716.97
2022-08-09T21:59:23.239Z,100719.91
2022-08-09T22:02:00.648Z,100715.50
2022-08-09T22:04:55.085Z,100720.34
2022-08-09T22:07:23.260Z,100722.63
2022-08-09T22:10:03.991Z,100721.72
2022-08-09T22:12:33.839Z,100719.34
2022-08-09T22:15:02.121Z,100719.38
2022-08-09T22:17:32.157Z,100717.25
2022-08-09T22:20:01.073Z,100714.00
2022-08-09T22:22:30.526Z,100718.53
2022-08-09T22:26:05.865Z,100717.59
2022-08-09T22:27:51.571Z,100711.00
2022-08-09T22:30:26.318Z,100712.50
2022-08-09T22:32:59.502Z,100707.88
2022-08-09T22:36:02.229Z,100701.06
2022-08-09T22:38:15.541Z,100694.06
2022-08-09T22:40:49.227Z,100687.75
2022-08-09T22:44:02.115Z,100689.34
2022-08-09T22:48:16.723Z,100684.03
2022-08-09T22:49:09.733Z,100677.34
2022-08-09T22:51:39.508Z,100680.31
2022-08-09T22:54:11.921Z,100678.00
2022-08-09T22:56:41.460Z,100678.44
2022-08-09T22:59:55.532Z,100682.78
2022-08-09T23:01:59.366Z,100674.34
2022-08-09T23:04:27.441Z,100670.97
2022-08-09T23:07:18.443Z,100667.44
2022-08-09T23:10:07.039Z,100679.66
2022-08-09T23:12:35.075Z,100664.88
2022-08-09T23:15:05.441Z,100671.69
2022-08-09T23:17:33.580Z,100668.22
2022-08-09T23:20:07.190Z,100667.53
2022-08-09T23:22:36.607Z,100664.81
2022-08-09T23:25:05.731Z,100653.69
2022-08-09T23:27:33.962Z,100656.31
2022-08-09T23:30:02.102Z,100656.59
2022-08-09T23:32:31.688Z,100659.66
2022-08-09T23:34:59.692Z,100665.56
2022-08-09T23:37:27.714Z,100669.00
2022-08-09T23:39:55.705Z,100665.66
2022-08-09T23:42:23.794Z,100671.09
2022-08-09T23:44:51.804Z,100669.25
2022-08-09T23:47:19.774Z,100666.34
2022-08-09T23:49:49.172Z,100663.44
2022-08-09T23:52:17.250Z,100667.81
2022-08-09T23:54:45.570Z,100665.50
2022-08-09T23:57:14.484Z,100650.88
